Latest Coastal Weather Observations for Robe Airport

IDV60701

Issued at 12:22 am EDT Sunday 26 March 2017 (issued every 10 minutes, with the page automatically refreshed every 10 minutes)

About coastal observations | Map of coastal stations | Coastal observations for VIC | Marine services | Other Formats
Station Details ID: 026105 Name: ROBE AIRFIELD Lat: -37.18 Lon: 139.81 Height: 3.0 m
Data from the previous 72 hours. | See also: Recent months at Robe Airport
Date/Time
EDT
Temp
°C
Wind Pressure Rain since
9am
mm
Weather Cloud Vis
km
Sea
Height
m
Swell
Dir  Spd
kts
Gust
kts
hPa Trend Height
m
Period
s
Dir
26/12:00am 17.8 SSE 4 5 1014.6 - 0.0 - - - - - - -
 
Date/Time
EDT
Temp
°C
Wind Pressure Rain since
9am
mm
Weather Cloud Vis
km
Sea
Height
m
Swell
Dir  Spd
kts
Gust
kts
hPa Trend Height
m
Period
s
Dir
25/11:30pm 17.7 SSE 3 5 1015.0 - 0.0 - - - - - - -
25/11:00pm 17.8 SSE 2 4 1015.3 - 0.0 - - - - - - -
25/10:30pm 17.7 S 4 6 1015.4 - 0.0 - - - - - - -
25/10:00pm 17.9 S 5 7 1015.2 - 0.0 - - - - - - -
25/09:30pm 17.9 S 5 7 1014.9 - 0.0 - - - - - - -
25/09:00pm 18.3 SSW 6 9 1014.5 - 0.0 - - - - - - -
25/08:30pm 18.1 SSW 4 8 1014.6 - 0.0 - - - - - - -
25/08:00pm 17.8 SW 4 6 1014.0 - 0.0 - - - - - - -
25/07:30pm 18.0 SSW 6 9 1013.7 - 0.0 - - - - - - -
25/07:00pm 18.6 SW 5 8 1013.9 - 0.0 - - - - - - -
25/06:30pm 19.7 SW 6 9 1013.5 - 0.0 - - - - - - -
25/06:00pm 19.9 SW 8 11 1013.5 - 0.0 - - - - - - -
25/05:30pm 20.5 SW 7 10 1013.2 - 0.0 - - - - - - -
25/05:00pm 20.4 SW 5 8 1013.3 - 0.0 - - - - - - -
25/04:30pm 20.9 SW 7 9 1013.3 - 0.0 - - - - - - -
25/04:00pm 20.7 SSW 7 11 1013.3 - 0.0 - - - - - - -
25/03:30pm 20.4 SSW 7 12 1013.1 - 0.0 - - - - - - -
25/03:00pm 20.6 SW 8 12 1013.4 - 0.0 - - - - - - -
25/02:30pm 20.4 SSW 9 13 1013.4 - 0.0 - - - - - - -
25/02:00pm 20.7 S 6 11 1013.4 - 0.0 - - - - - - -
25/01:30pm 19.5 SSW 9 12 1013.6 - 0.0 - - - - - - -
25/01:00pm 19.5 S 9 13 1013.6 - 0.0 - - - - - - -
25/12:30pm 19.4 SSW 9 14 1013.7 - 0.0 - - - - - - -
25/12:00pm 20.1 SSW 10 15 1013.5 - 0.0 - - - - - - -
25/11:30am 20.6 SSW 9 13 1013.4 - 0.0 - - - - - - -
25/11:00am 20.7 SSW 8 11 1013.3 - 0.0 - - - - - - -
25/10:30am 20.6 SSW 8 11 1013.1 - 0.0 - - - - - - -
25/10:00am 21.1 SSW 7 9 1012.7 - 0.0 - - - - - - -
25/09:30am 20.3 S 7 9 1012.5 - 0.0 - - - - - - -
25/09:00am 18.7 SSW 3 5 1012.2 - 0.0 - - - - - - -
25/08:30am 17.2 SSW 5 6 1012.0 - 0.0 - - - - - - -
25/08:00am 16.8 SSW 5 6 1011.6 - 0.0 - - - - - - -
25/07:30am 16.4 S 2 3 1011.4 - 0.0 - - - - - - -
25/07:00am 17.2 S 4 5 1010.8 - 0.0 - - - - - - -
25/06:30am 17.9 SSW 5 7 1010.5 - 0.0 - - - - - - -
25/06:00am 18.3 CALM 0 1 1010.5 - 0.0 - - - - - - -
25/05:30am 18.5 SSW 6 10 1010.7 - 0.0 - - - - - - -
25/05:00am 18.8 NNW 3 3 1010.0 - 0.0 - - - - - - -
25/04:30am 19.2 CALM 0 2 1010.2 - 0.0 - - - - - - -
25/04:00am 19.3 CALM 0 0 1010.3 - 0.0 - - - - - - -
25/03:30am 19.4 CALM 0 0 1010.4 - 0.0 - - - - - - -
25/03:00am 20.2 NW 1 2 1010.4 - 0.0 - - - - - - -
25/02:30am 21.1 NW 1 2 1010.8 - 0.0 - - - - - - -
25/02:00am 20.7 NNE 1 2 1010.6 - 0.0 - - - - - - -
25/01:30am 21.1 NE 2 4 1011.0 - 0.0 - - - - - - -
25/01:00am 21.2 NE 5 7 1010.9 - 0.0 - - - - - - -
25/12:30am 21.0 NE 6 7 1011.0 - 0.0 - - - - - - -
25/12:00am 20.4 NE 3 4 1011.7 - 0.0 - - - - - - -
 
Date/Time
EDT
Temp
°C
Wind Pressure Rain since
9am
mm
Weather Cloud Vis
km
Sea
Height
m
Swell
Dir  Spd
kts
Gust
kts
hPa Trend Height
m
Period
s
Dir
24/11:30pm 20.5 NE 5 6 1011.9 - 0.0 - - - - - - -
24/11:00pm 20.9 E 5 7 1012.0 - 0.0 - - - - - - -
24/10:30pm 21.1 E 3 6 1012.8 - 0.0 - - - - - - -
24/10:00pm 20.5 ESE 4 7 1012.7 - 0.0 - - - - - - -
24/09:30pm 20.3 S 4 7 1013.1 - 0.0 - - - - - - -
24/09:00pm 20.4 ENE 4 4 1013.0 - 0.0 - - - - - - -
24/08:30pm 20.9 SE 3 5 1013.4 - 0.0 - - - - - - -
24/08:00pm 20.6 SE 4 6 1013.4 - 0.0 - - - - - - -
24/07:30pm 21.6 SSE 5 7 1013.1 - 0.0 - - - - - - -
24/07:00pm 22.6 S 6 9 1013.3 - 0.0 - - - - - - -
24/06:30pm 22.6 S 6 8 1013.5 - 0.0 - - - - - - -
24/06:00pm 22.7 S 6 8 1013.8 - 0.0 - - - - - - -
24/05:30pm 22.6 SSW 8 10 1014.0 - 0.0 - - - - - - -
24/05:00pm 24.6 SSW 7 9 1013.9 - 0.0 - - - - - - -
24/04:30pm 25.0 SW 6 8 1013.5 - 0.0 - - - - - - -
24/04:00pm 26.0 SW 5 8 1013.6 - 0.0 - - - - - - -
24/03:30pm 27.6 W 5 8 1013.8 - 0.0 - - - - - - -
24/03:00pm 27.7 NW 4 6 1013.8 - 0.0 - - - - - - -
24/02:30pm 27.8 NNE 5 7 1014.3 - 0.0 - - - - - - -
24/02:00pm 25.8 NNE 6 9 1014.4 - 0.0 - - - - - - -
24/01:30pm 26.3 NNE 7 11 1014.7 - 0.0 - - - - - - -
24/01:00pm 24.6 NNE 7 11 1014.9 - 0.0 - - - - - - -
24/12:30pm 23.8 NNE 8 11 1015.5 - 0.0 - - - - - - -
24/12:00pm 22.9 NNE 8 12 1016.0 - 0.0 - - - - - - -
24/11:30am 22.4 NE 8 11 1016.5 - 0.0 - - - - - - -
24/11:00am 20.5 NE 7 11 1016.9 - 0.0 - - - - - - -
24/10:30am 18.1 ENE 6 10 1017.0 - 0.0 - - - - - - -
24/10:00am 17.8 E 5 9 1017.1 - 0.0 - - - - - - -
24/09:30am 16.0 ESE 4 7 1016.8 - 0.0 - - - - - - -
24/09:00am 15.1 ESE 5 8 1016.7 - 0.0 - - - - - - -
24/08:30am 14.4 ESE 4 7 1016.8 - 0.0 - - - - - - -
24/08:00am 14.2 SE 5 7 1016.9 - 0.0 - - - - - - -
24/07:30am 13.9 ESE 4 6 1016.8 - 0.0 - - - - - - -
24/07:00am 14.1 SE 5 6 1016.8 - 0.0 - - - - - - -
24/06:30am 13.9 SE 4 6 1016.4 - 0.0 - - - - - - -
24/06:00am 14.2 ESE 4 7 1016.2 - 0.0 - - - - - - -
24/05:30am 14.5 ESE 6 8 1016.2 - 0.0 - - - - - - -
24/05:00am 14.6 ESE 5 7 1016.2 - 0.0 - - - - - - -
24/04:30am 14.6 ESE 6 9 1016.7 - 0.0 - - - - - - -
24/04:00am 14.8 ESE 6 9 1016.7 - 0.0 - - - - - - -
24/03:30am 15.1 SE 6 11 1017.3 - 0.0 - - - - - - -
24/03:00am 15.3 SE 5 9 1017.6 - 0.0 - - - - - - -
24/02:30am 15.0 SE 7 9 1017.9 - 0.0 - - - - - - -
24/02:00am 15.0 SE 6 8 1018.1 - 0.0 - - - - - - -
24/01:30am 15.2 SE 5 8 1018.3 - 0.0 - - - - - - -
24/01:00am 15.5 SE 8 12 1018.3 - 0.0 - - - - - - -
24/12:30am 15.9 SE 8 11 1018.8 - 0.0 - - - - - - -
24/12:00am 15.8 SSE 6 8 1019.2 - 0.0 - - - - - - -
 
Date/Time
EDT
Temp
°C
Wind Pressure Rain since
9am
mm
Weather Cloud Vis
km
Sea
Height
m
Swell
Dir  Spd
kts
Gust
kts
hPa Trend Height
m
Period
s
Dir
23/11:30pm 16.5 SE 7 10 1019.0 - 0.0 - - - - - - -
23/11:00pm 17.0 SE 9 12 1018.9 - 0.0 - - - - - - -
23/10:30pm 17.3 SE 10 13 1018.6 - 0.0 - - - - - - -
23/10:00pm 17.7 SE 8 11 1018.7 - 0.0 - - - - - - -
23/09:30pm 17.7 SE 6 9 1018.6 - 0.0 - - - - - - -
23/09:00pm 18.2 SE 7 9 1018.3 - 0.0 - - - - - - -
23/08:30pm 18.7 SE 8 12 1017.9 - 0.0 - - - - - - -
23/08:00pm 19.0 SSE 9 14 1017.6 - 0.0 - - - - - - -
23/07:30pm 20.0 SSE 12 17 1017.4 - 0.0 - - - - - - -
23/07:00pm 21.1 SSE 12 16 1017.2 - 0.0 - - - - - - -
23/06:30pm 22.1 SSE 12 16 1017.2 - 0.0 - - - - - - -
23/06:00pm 23.1 SSE 13 18 1017.2 - 0.0 - - - - - - -
23/05:30pm 24.0 SSE 12 18 1017.0 - 0.0 - - - - - - -
23/05:00pm 25.7 ESE 12 18 1017.1 - 0.0 - - - - - - -
23/04:30pm 26.0 ESE 11 17 1017.1 - 0.0 - - - - - - -
23/04:00pm 25.8 ESE 11 17 1017.3 - 0.0 - - - - - - -
23/03:30pm 25.4 SE 12 18 1017.3 - 0.0 - - - - - - -
23/03:00pm 25.5 ESE 12 19 1017.7 - 0.0 - - - - - - -
23/02:30pm 24.8 E 13 17 1018.0 - 0.0 - - - - - - -
23/02:00pm 24.6 ESE 13 22 1018.2 - 0.0 - - - - - - -
23/01:30pm 24.2 ESE 13 19 1019.0 - 0.0 - - - - - - -
23/01:00pm 24.0 ESE 12 19 1019.5 - 0.0 - - - - - - -
23/12:30pm 22.0 ESE 15 23 1019.8 - 0.0 - - - - - - -
23/12:00pm 22.7 ESE 14 21 1019.5 - 0.0 - - - - - - -
23/11:30am 21.4 ESE 16 23 1020.0 - 0.0 - - - - - - -
23/11:00am 20.4 ESE 16 21 1020.3 - 0.0 - - - - - - -
23/10:30am 19.6 SE 14 22 1020.1 - 0.0 - - - - - - -
23/10:00am 18.4 SE 13 19 1020.2 - 0.0 - - - - - - -
23/09:30am 17.4 SE 13 17 1020.3 - 0.0 - - - - - - -
23/09:00am 16.6 SE 11 16 1020.1 - 0.0 - - - - - - -
23/08:30am 15.8 SE 9 14 1020.0 - 0.0 - - - - - - -
23/08:00am 15.5 SSE 11 16 1019.6 - 0.0 - - - - - - -
23/07:30am 15.5 SSE 11 16 1019.5 - 0.0 - - - - - - -
23/07:00am 15.6 SE 11 16 1019.4 - 0.0 - - - - - - -
23/06:30am 15.6 SSE 11 17 1019.2 - 0.0 - - - - - - -
23/06:00am 15.7 SSE 11 15 1019.2 - 0.0 - - - - - - -
23/05:30am 15.8 SSE 10 15 1018.9 - 0.0 - - - - - - -
23/05:00am 15.6 SSE 10 13 1019.0 - 0.0 - - - - - - -
23/04:30am 15.8 SE 9 12 1019.2 - 0.0 - - - - - - -
23/04:00am 16.0 SSE 11 16 1019.2 - 0.0 - - - - - - -
23/03:30am 16.1 SE 11 18 1019.3 - 0.0 - - - - - - -
23/03:00am 16.1 SSE 10 14 1019.4 - 0.0 - - - - - - -
23/02:30am 15.8 SSE 8 12 1019.4 - 0.0 - - - - - - -
23/02:00am 15.9 S 8 10 1019.9 - 0.0 - - - - - - -
23/01:30am 16.4 SE 9 12 1019.8 - 0.0 - - - - - - -
23/01:00am 16.4 SE 9 15 1020.1 - 0.0 - - - - - - -

Other Formats:

Comma delimited format used in spreadsheet applications
http://www.bom.gov.au/fwo/IDV60701/IDV60701.95816.axf

JavaScript Object Notation format (JSON) in row-major order
http://www.bom.gov.au/fwo/IDV60701/IDV60701.95816.json